Time;durP1;ratioP1;P1;durP2;ratioP2;P2;SDS_P1;SDS_P2;PMS_P1;PMS_P2;Temp;Humidity;BMP_temperature;BMP_pressure;BME280_temperature;BME280_humidity;BME280_pressure;Samples;Min_cycle;Max_cycle;Signal;HPM_P1;HPM_P2
2023/09/14 00:33:27;;;;;;;1.30;0.60;;;14.20;67.50;;;;;;5572805;22;20080;-74
2023/09/14 00:35:53;;;;;;;1.13;0.80;;;14.10;67.60;;;;;;4989612;28;20058;-74
2023/09/14 00:38:18;;;;;;;2.78;0.80;;;14.10;67.50;;;;;;4978829;28;20091;-74
2023/09/14 00:40:44;;;;;;;1.33;0.60;;;14.10;67.90;;;;;;4978700;28;20049;-74
2023/09/14 00:43:10;;;;;;;1.58;0.65;;;14.10;67.60;;;;;;4978748;28;20552;-73
2023/09/14 00:45:35;;;;;;;1.17;0.68;;;14.10;67.70;;;;;;4978556;28;20477;-74
2023/09/14 00:48:02;;;;;;;1.83;0.75;;;14.10;67.70;;;;;;4961865;28;20034;-74
2023/09/14 00:50:29;;;;;;;1.88;0.50;;;14.10;67.70;;;;;;4978093;28;20096;-73
2023/09/14 00:53:22;;;;;;;1.00;0.50;;;14.10;67.60;;;;;;4978395;28;20056;-74
2023/09/14 00:55:47;;;;;;;0.93;0.43;;;14.10;67.40;;;;;;4961047;28;20055;-74
2023/09/14 00:58:15;;;;;;;1.75;0.50;;;14.10;67.20;;;;;;4958756;28;20138;-74
2023/09/14 01:00:46;;;;;;;2.42;0.60;;;14.10;67.10;;;;;;4962156;28;20057;-73
2023/09/14 01:03:13;;;;;;;1.20;0.40;;;14.10;67.00;;;;;;4961430;28;20579;-73
2023/09/14 01:05:40;;;;;;;1.13;0.60;;;14.10;66.90;;;;;;4962185;28;20374;-73
2023/09/14 01:08:06;;;;;;;1.05;0.57;;;14.10;66.90;;;;;;4977684;28;20050;-73
2023/09/14 01:10:31;;;;;;;1.15;0.55;;;14.00;66.80;;;;;;4961785;28;20137;-73
2023/09/14 01:12:57;;;;;;;0.90;0.57;;;14.00;66.60;;;;;;4977555;28;20072;-73
2023/09/14 01:15:38;;;;;;;1.48;0.60;;;14.00;66.50;;;;;;4977183;28;20548;-73
2023/09/14 01:18:22;;;;;;;1.98;0.60;;;14.00;66.30;;;;;;4977358;28;20430;-73
2023/09/14 01:21:21;;;;;;;1.30;0.47;;;14.00;66.30;;;;;;4977736;28;20048;-73
2023/09/14 01:23:58;;;;;;;1.00;0.38;;;14.00;66.40;;;;;;4977674;28;20057;-73
2023/09/14 01:26:25;;;;;;;1.08;0.40;;;13.90;66.60;;;;;;4977749;28;20073;-73
2023/09/14 01:28:50;;;;;;;1.55;0.60;;;13.90;66.80;;;;;;4929645;28;20123;-73
2023/09/14 01:31:16;;;;;;;1.00;0.55;;;13.90;66.80;;;;;;4961508;28;20047;-73
2023/09/14 01:33:42;;;;;;;2.67;0.70;;;13.90;66.80;;;;;;4965509;28;20039;-73
2023/09/14 01:36:08;;;;;;;1.13;0.63;;;13.80;66.80;;;;;;4941945;28;20109;-73
2023/09/14 01:38:34;;;;;;;1.67;0.68;;;13.80;66.80;;;;;;4958143;28;20097;-73
2023/09/14 01:41:02;;;;;;;0.80;0.60;;;13.80;66.80;;;;;;4958161;28;20046;-73
2023/09/14 01:43:29;;;;;;;0.65;0.55;;;13.80;66.60;;;;;;4957828;28;20057;-73
2023/09/14 01:45:55;;;;;;;0.82;0.60;;;13.80;66.60;;;;;;4966019;28;20077;-73
2023/09/14 01:48:22;;;;;;;1.55;0.70;;;13.70;66.50;;;;;;4957617;28;20070;-73
2023/09/14 01:50:48;;;;;;;2.05;0.75;;;13.80;66.70;;;;;;4957844;28;20057;-73
2023/09/14 01:53:13;;;;;;;1.52;0.70;;;13.70;66.70;;;;;;4957985;28;20130;-73
2023/09/14 01:55:39;;;;;;;1.83;0.70;;;13.70;66.60;;;;;;4957291;28;20117;-73
2023/09/14 01:58:05;;;;;;;1.25;0.68;;;13.70;66.60;;;;;;4957743;28;20086;-73
2023/09/14 02:00:30;;;;;;;2.72;0.70;;;13.70;66.50;;;;;;4957747;28;20046;-73
2023/09/14 02:02:56;;;;;;;1.23;0.60;;;13.60;66.50;;;;;;4958029;28;20035;-73
2023/09/14 02:05:22;;;;;;;1.33;0.60;;;13.60;66.50;;;;;;4957216;28;20446;-73
2023/09/14 02:07:48;;;;;;;1.55;0.80;;;13.60;66.60;;;;;;4957124;28;20456;-73
2023/09/14 02:10:14;;;;;;;0.95;0.60;;;13.60;66.70;;;;;;4957477;28;20042;-73
2023/09/14 02:12:40;;;;;;;1.45;0.60;;;13.60;66.80;;;;;;4957383;28;20126;-73
2023/09/14 02:15:10;;;;;;;2.33;0.82;;;13.60;66.80;;;;;;4941450;28;20178;-73
2023/09/14 02:17:36;;;;;;;1.83;0.40;;;13.50;66.60;;;;;;4942098;28;20038;-73
2023/09/14 02:20:04;;;;;;;1.10;0.50;;;13.60;66.50;;;;;;4957586;28;20126;-73
2023/09/14 02:22:30;;;;;;;2.63;0.85;;;13.50;66.70;;;;;;4957647;28;20050;-73
2023/09/14 02:24:55;;;;;;;1.33;0.70;;;13.50;66.70;;;;;;4956757;28;20042;-73
2023/09/14 02:27:21;;;;;;;2.47;0.88;;;13.50;66.80;;;;;;4941043;28;20074;-73
2023/09/14 02:29:47;;;;;;;1.35;0.70;;;13.50;66.80;;;;;;4957129;28;20134;-73
2023/09/14 02:32:13;;;;;;;1.00;0.60;;;13.50;66.80;;;;;;4957190;28;20038;-73
2023/09/14 02:34:38;;;;;;;1.27;0.80;;;13.40;66.70;;;;;;4956886;28;20061;-73
2023/09/14 02:37:04;;;;;;;1.95;0.60;;;13.40;66.70;;;;;;4940733;28;20490;-73
2023/09/14 02:39:30;;;;;;;2.97;0.82;;;13.40;66.70;;;;;;4957067;28;20038;-73
2023/09/14 02:41:56;;;;;;;1.75;0.60;;;13.40;66.70;;;;;;4957052;28;20405;-73
2023/09/14 02:44:21;;;;;;;2.10;0.80;;;13.40;66.60;;;;;;4965231;28;20045;-73
2023/09/14 02:46:47;;;;;;;1.15;0.75;;;13.40;66.90;;;;;;4925426;28;20035;-73
2023/09/14 02:49:13;;;;;;;0.98;0.70;;;13.40;66.30;;;;;;4957101;28;20039;-73
2023/09/14 02:51:38;;;;;;;3.25;1.02;;;13.40;66.30;;;;;;4957182;28;20393;-73
2023/09/14 02:54:04;;;;;;;1.20;0.80;;;13.40;66.30;;;;;;4940750;28;20425;-73
2023/09/14 02:56:30;;;;;;;1.83;0.65;;;13.30;66.20;;;;;;4956705;28;20050;-73
2023/09/14 02:58:55;;;;;;;0.85;0.50;;;13.30;66.10;;;;;;4957316;28;20097;-73
2023/09/14 03:01:21;;;;;;;1.98;0.68;;;13.30;66.20;;;;;;4924903;28;20516;-73
2023/09/14 03:03:47;;;;;;;1.13;0.70;;;13.30;66.30;;;;;;4956683;28;20351;-73
2023/09/14 03:06:13;;;;;;;2.75;0.70;;;13.30;66.60;;;;;;4940903;28;20038;-73
2023/09/14 03:08:39;;;;;;;1.73;0.70;;;13.20;66.00;;;;;;4957200;28;20047;-73
2023/09/14 03:11:05;;;;;;;1.40;0.60;;;13.30;66.10;;;;;;4924608;28;20047;-73
2023/09/14 03:13:31;;;;;;;0.82;0.68;;;13.20;66.00;;;;;;4956582;28;20401;-73
2023/09/14 03:15:58;;;;;;;2.63;1.00;;;13.20;66.00;;;;;;4924501;28;20122;-72
2023/09/14 03:18:24;;;;;;;1.67;0.80;;;13.20;65.90;;;;;;4956675;28;20054;-73
2023/09/14 03:20:52;;;;;;;1.23;0.73;;;13.20;65.90;;;;;;4955658;28;20047;-73
2023/09/14 03:23:18;;;;;;;1.73;0.77;;;13.20;66.00;;;;;;4940831;28;20082;-73
2023/09/14 03:25:44;;;;;;;1.60;0.80;;;13.20;65.90;;;;;;4956464;28;20495;-73
2023/09/14 03:28:11;;;;;;;1.23;0.70;;;13.20;66.00;;;;;;4956944;28;20046;-73
2023/09/14 03:30:37;;;;;;;2.75;0.90;;;13.20;66.00;;;;;;4940137;28;20050;-73
2023/09/14 03:33:03;;;;;;;1.60;0.50;;;13.10;66.10;;;;;;4956008;28;20046;-73
2023/09/14 03:35:28;;;;;;;1.60;0.70;;;13.10;66.20;;;;;;4955978;28;20050;-73
2023/09/14 03:37:54;;;;;;;3.67;0.80;;;13.10;66.20;;;;;;4956558;28;20414;-73
2023/09/14 03:40:20;;;;;;;1.92;1.00;;;13.10;66.10;;;;;;4956453;28;20039;-72
2023/09/14 03:42:46;;;;;;;1.27;0.68;;;13.10;66.10;;;;;;4956279;28;20046;-73
2023/09/14 03:45:12;;;;;;;1.40;0.88;;;13.10;66.00;;;;;;4955868;28;20050;-73
2023/09/14 03:47:38;;;;;;;1.95;0.70;;;13.00;66.00;;;;;;4940614;28;20051;-73
2023/09/14 03:50:05;;;;;;;1.02;0.60;;;13.00;65.90;;;;;;4956481;28;20410;-74
2023/09/14 03:52:31;;;;;;;1.83;0.70;;;13.00;65.80;;;;;;4940477;28;20112;-73
2023/09/14 03:54:56;;;;;;;3.97;0.80;;;13.00;65.90;;;;;;4940160;28;20118;-73
2023/09/14 03:57:24;;;;;;;1.95;0.77;;;13.00;66.00;;;;;;4940230;28;20122;-73
2023/09/14 03:59:51;;;;;;;1.95;0.65;;;12.90;66.00;;;;;;4955981;28;20098;-73
2023/09/14 04:02:17;;;;;;;2.20;0.85;;;12.90;66.10;;;;;;4956400;28;20391;-73
2023/09/14 04:04:43;;;;;;;2.42;0.70;;;12.90;66.10;;;;;;4938908;28;20053;-73
2023/09/14 04:07:10;;;;;;;1.17;0.60;;;12.90;66.10;;;;;;4955906;28;20054;-73
2023/09/14 04:09:36;;;;;;;0.93;0.70;;;12.90;66.10;;;;;;4956234;28;20035;-73
2023/09/14 04:12:02;;;;;;;1.92;0.80;;;12.90;66.10;;;;;;4939571;28;20094;-73
2023/09/14 04:14:28;;;;;;;2.25;1.10;;;12.90;66.20;;;;;;4955720;28;20039;-73
2023/09/14 04:16:59;;;;;;;1.65;0.77;;;12.80;66.00;;;;;;4940276;28;20039;-73
2023/09/14 04:19:25;;;;;;;1.55;0.80;;;12.80;66.00;;;;;;4956188;28;20043;-73
2023/09/14 04:21:51;;;;;;;1.70;0.93;;;12.80;66.00;;;;;;4955744;28;20085;-73
2023/09/14 04:24:17;;;;;;;1.08;0.63;;;12.80;66.00;;;;;;4939135;28;20049;-73
2023/09/14 04:26:42;;;;;;;1.02;0.68;;;12.80;66.10;;;;;;4908742;28;20121;-73
2023/09/14 04:29:08;;;;;;;3.03;1.08;;;12.80;66.10;;;;;;4956287;28;20039;-73
2023/09/14 04:31:34;;;;;;;1.73;0.73;;;12.80;66.00;;;;;;4957327;28;20085;-73
2023/09/14 04:34:00;;;;;;;2.08;1.00;;;12.80;66.00;;;;;;4959140;28;20042;-74
2023/09/14 04:36:26;;;;;;;3.30;1.15;;;12.80;66.00;;;;;;4959863;28;20434;-73
2023/09/14 04:38:52;;;;;;;1.95;0.90;;;12.80;66.00;;;;;;4943600;28;20090;-73
2023/09/14 04:41:17;;;;;;;1.58;0.77;;;12.80;65.80;;;;;;4943019;28;20034;-73
2023/09/14 04:43:43;;;;;;;2.00;0.88;;;12.80;65.80;;;;;;4959069;28;20039;-73
2023/09/14 04:46:09;;;;;;;0.98;0.63;;;12.70;65.80;;;;;;4927338;28;20100;-73
2023/09/14 04:48:37;;;;;;;2.50;1.02;;;12.70;65.90;;;;;;4959084;28;20043;-73
2023/09/14 04:51:03;;;;;;;1.83;0.82;;;12.70;65.80;;;;;;4942763;28;20058;-73
2023/09/14 04:53:30;;;;;;;1.40;0.73;;;12.70;65.80;;;;;;4942482;28;20107;-73
2023/09/14 04:55:56;;;;;;;1.35;0.73;;;12.70;65.70;;;;;;4942959;28;20042;-73
2023/09/14 04:58:22;;;;;;;2.90;0.73;;;12.70;65.70;;;;;;4942863;28;20047;-73
2023/09/14 05:00:51;;;;;;;2.33;0.70;;;12.70;65.50;;;;;;4958451;28;20046;-73
2023/09/14 05:03:18;;;;;;;1.88;0.73;;;12.70;65.40;;;;;;4958944;28;20053;-73
2023/09/14 05:05:50;;;;;;;1.50;0.70;;;12.60;65.40;;;;;;4958785;28;20486;-73
2023/09/14 05:08:15;;;;;;;1.10;0.60;;;12.60;65.50;;;;;;4958404;28;20050;-73
2023/09/14 05:10:41;;;;;;;1.15;0.60;;;12.60;65.60;;;;;;4942715;28;20047;-73
2023/09/14 05:13:07;;;;;;;1.35;0.70;;;12.60;65.70;;;;;;4942854;28;20097;-73
2023/09/14 05:15:32;;;;;;;1.15;0.52;;;12.60;65.70;;;;;;4958579;28;20512;-73
2023/09/14 05:17:58;;;;;;;1.10;0.50;;;12.60;65.80;;;;;;4958325;28;20491;-73
2023/09/14 05:20:24;;;;;;;3.10;0.73;;;12.60;65.80;;;;;;4942318;28;20406;-73
2023/09/14 05:22:49;;;;;;;1.80;0.70;;;12.50;65.80;;;;;;4958429;28;20055;-73
2023/09/14 05:25:15;;;;;;;1.13;0.68;;;12.50;65.80;;;;;;4958218;28;20043;-73
2023/09/14 05:27:41;;;;;;;2.22;1.27;;;12.50;65.80;;;;;;4974550;28;20393;-73
2023/09/14 05:30:09;;;;;;;4.43;1.00;;;12.50;65.80;;;;;;4958246;28;20096;-73
2023/09/14 05:32:35;;;;;;;3.15;1.00;;;12.50;65.90;;;;;;4941966;28;20046;-73
2023/09/14 05:35:01;;;;;;;1.08;0.77;;;12.50;66.00;;;;;;4957886;28;20046;-73
2023/09/14 05:37:29;;;;;;;2.05;0.98;;;12.50;66.00;;;;;;4958088;28;20162;-73
2023/09/14 05:39:55;;;;;;;1.40;0.70;;;12.50;66.10;;;;;;4958621;28;20491;-73
2023/09/14 05:42:22;;;;;;;1.85;0.65;;;12.50;66.10;;;;;;4957231;28;20056;-71
2023/09/14 05:44:48;;;;;;;1.30;0.70;;;12.50;66.10;;;;;;4941648;28;20042;-72
2023/09/14 05:47:14;;;;;;;1.33;0.70;;;12.50;66.20;;;;;;4958316;28;20130;-72
2023/09/14 05:49:41;;;;;;;2.47;0.90;;;12.50;66.10;;;;;;4942266;28;20042;-73
2023/09/14 05:52:06;;;;;;;1.40;0.70;;;12.50;66.00;;;;;;4957723;28;20042;-72
2023/09/14 05:54:32;;;;;;;2.63;1.08;;;12.50;65.90;;;;;;4957425;28;20038;-73
2023/09/14 05:56:58;;;;;;;1.45;0.88;;;12.50;65.70;;;;;;4964408;28;20072;-73
2023/09/14 05:59:23;;;;;;;2.00;1.00;;;12.50;65.50;;;;;;4957956;28;20118;-73
2023/09/14 06:01:50;;;;;;;2.42;1.10;;;12.50;65.50;;;;;;4957693;28;20035;-73
2023/09/14 06:04:17;;;;;;;4.00;1.80;;;12.50;65.60;;;;;;4957600;28;20050;-73
2023/09/14 06:06:42;;;;;;;2.60;1.50;;;12.50;65.90;;;;;;4957530;28;20042;-73
2023/09/14 06:09:08;;;;;;;1.77;1.10;;;12.50;66.10;;;;;;4932608;29;20051;-73
2023/09/14 06:11:34;;;;;;;2.70;1.10;;;12.50;66.30;;;;;;4935014;28;20034;-74
2023/09/14 06:13:59;;;;;;;2.63;0.80;;;12.50;66.50;;;;;;4903075;28;20038;-74
2023/09/14 06:16:25;;;;;;;3.17;1.20;;;12.60;66.70;;;;;;4951604;28;20365;-74
2023/09/14 06:18:51;;;;;;;1.60;1.05;;;12.60;66.90;;;;;;4951204;28;20117;-74
2023/09/14 06:21:18;;;;;;;3.00;1.10;;;12.60;67.10;;;;;;4935976;28;20051;-74
2023/09/14 06:23:45;;;;;;;2.88;1.20;;;12.70;67.30;;;;;;4936541;28;20433;-73
2023/09/14 06:26:10;;;;;;;3.50;1.52;;;12.80;67.50;;;;;;4951410;28;20408;-74
2023/09/14 06:28:36;;;;;;;2.63;0.82;;;12.80;67.60;;;;;;4935754;28;20031;-74
2023/09/14 06:31:02;;;;;;;2.25;0.82;;;12.90;67.70;;;;;;4935372;28;20132;-74
2023/09/14 06:33:28;;;;;;;3.80;1.40;;;12.90;67.80;;;;;;4948604;28;20085;-74
2023/09/14 06:35:54;;;;;;;2.50;1.10;;;13.00;67.80;;;;;;4934836;28;20050;-74
2023/09/14 06:38:20;;;;;;;3.10;1.52;;;13.10;67.90;;;;;;4951443;28;20027;-74
2023/09/14 06:40:46;;;;;;;4.40;1.80;;;13.10;68.20;;;;;;4935513;28;20462;-74
2023/09/14 06:43:11;;;;;;;3.40;1.77;;;13.20;68.30;;;;;;4950842;28;20371;-74
2023/09/14 06:45:37;;;;;;;2.95;1.52;;;13.20;68.40;;;;;;4953210;28;20047;-74
2023/09/14 06:48:03;;;;;;;3.88;1.30;;;13.30;68.60;;;;;;4951655;28;20047;-74
2023/09/14 06:50:29;;;;;;;3.10;1.98;;;13.40;68.80;;;;;;4935122;28;20046;-74
2023/09/14 06:52:56;;;;;;;3.80;2.20;;;13.40;69.00;;;;;;4951209;28;20150;-74
2023/09/14 06:55:22;;;;;;;5.15;2.10;;;13.40;69.30;;;;;;4949393;28;20109;-74
2023/09/14 06:57:48;;;;;;;6.15;2.33;;;13.50;69.60;;;;;;4949989;28;20054;-74
2023/09/14 07:00:15;;;;;;;4.95;1.92;;;13.50;69.90;;;;;;4949633;28;20418;-74
2023/09/14 07:02:42;;;;;;;5.95;2.47;;;13.60;70.30;;;;;;4951192;28;20066;-73
2023/09/14 07:05:10;;;;;;;6.28;2.40;;;13.60;70.60;;;;;;4952987;28;20070;-73
2023/09/14 07:07:40;;;;;;;5.03;1.98;;;13.60;70.90;;;;;;4919577;28;20447;-74
2023/09/14 07:10:08;;;;;;;4.22;2.20;;;13.60;71.30;;;;;;4949329;28;20509;-74
2023/09/14 07:12:35;;;;;;;4.88;2.08;;;13.60;71.60;;;;;;4950655;28;20512;-74
2023/09/14 07:15:01;;;;;;;5.50;2.08;;;13.60;72.00;;;;;;4949994;28;20047;-74
2023/09/14 07:17:26;;;;;;;6.15;2.28;;;13.70;72.40;;;;;;4951230;28;20049;-74
2023/09/14 07:19:52;;;;;;;5.57;2.35;;;13.70;72.80;;;;;;4934468;28;20040;-74
2023/09/14 07:22:18;;;;;;;5.60;2.17;;;13.70;73.30;;;;;;4935036;28;20085;-74
2023/09/14 07:24:44;;;;;;;5.15;2.00;;;13.70;73.70;;;;;;4950700;28;20117;-74
2023/09/14 07:27:10;;;;;;;5.55;2.00;;;13.80;74.10;;;;;;4919732;28;20125;-74
2023/09/14 07:29:35;;;;;;;5.53;2.00;;;13.80;74.50;;;;;;4935365;28;20050;-74
2023/09/14 07:32:01;;;;;;;8.02;2.80;;;13.80;74.70;;;;;;4950862;28;20039;-73
2023/09/14 07:34:27;;;;;;;6.80;1.77;;;13.90;75.00;;;;;;4950352;28;20126;-74
2023/09/14 07:36:53;;;;;;;6.75;1.85;;;13.90;75.10;;;;;;4950436;28;20042;-72
2023/09/14 07:39:19;;;;;;;5.50;1.92;;;14.00;75.20;;;;;;4934022;28;20387;-73
2023/09/14 07:41:44;;;;;;;6.32;2.20;;;14.00;75.30;;;;;;4934781;28;20042;-73
2023/09/14 07:44:10;;;;;;;6.00;1.80;;;14.00;75.70;;;;;;4949179;28;20043;-74
2023/09/14 07:46:37;;;;;;;5.85;1.85;;;14.10;75.80;;;;;;4950095;28;20065;-74
2023/09/14 07:49:03;;;;;;;6.32;2.00;;;14.20;76.00;;;;;;4950226;28;20043;-74
2023/09/14 07:51:28;;;;;;;7.47;2.13;;;14.30;75.90;;;;;;4934242;28;20089;-74
2023/09/14 07:53:55;;;;;;;8.15;2.08;;;14.40;76.00;;;;;;4933561;28;20489;-74
2023/09/14 07:56:22;;;;;;;7.18;1.80;;;14.50;75.70;;;;;;4950332;28;20486;-74
2023/09/14 07:58:48;;;;;;;6.40;1.95;;;14.70;74.90;;;;;;4950566;28;20078;-74
2023/09/14 08:01:13;;;;;;;7.10;1.60;;;14.80;74.30;;;;;;4950891;28;20070;-74
2023/09/14 08:03:39;;;;;;;8.15;1.85;;;14.90;74.30;;;;;;4948723;28;20458;-74
2023/09/14 08:06:05;;;;;;;7.57;1.77;;;15.10;73.70;;;;;;4951301;28;20069;-74
2023/09/14 08:08:33;;;;;;;7.20;2.03;;;15.30;73.20;;;;;;4954806;28;20073;-73
2023/09/14 08:11:00;;;;;;;7.00;2.17;;;15.60;72.90;;;;;;4938153;28;20047;-74
2023/09/14 08:13:26;;;;;;;5.63;1.42;;;15.90;71.90;;;;;;4953736;28;20117;-73
2023/09/14 08:15:52;;;;;;;4.80;1.75;;;16.20;70.90;;;;;;4952623;28;20117;-74
2023/09/14 08:18:21;;;;;;;6.78;1.50;;;16.50;70.10;;;;;;4970349;28;21025;-74
2023/09/14 08:20:47;;;;;;;6.85;1.92;;;16.80;69.50;;;;;;4952169;28;20362;-74
2023/09/14 08:23:19;;;;;;;5.57;1.80;;;17.10;68.70;;;;;;4921785;28;20129;-73
2023/09/14 08:25:45;;;;;;;7.43;2.22;;;17.40;67.90;;;;;;4952930;28;20536;-74
2023/09/14 08:28:17;;;;;;;9.23;2.75;;;17.70;66.40;;;;;;4938138;28;20074;-74
2023/09/14 08:30:43;;;;;;;6.30;2.13;;;18.00;64.10;;;;;;4953349;28;20050;-74
2023/09/14 08:33:12;;;;;;;7.68;2.28;;;18.30;63.50;;;;;;4953024;28;20481;-74
2023/09/14 08:35:39;;;;;;;7.28;2.13;;;18.50;63.20;;;;;;4951349;28;20055;-74
2023/09/14 08:38:06;;;;;;;7.80;2.28;;;18.70;61.60;;;;;;4951738;28;20490;-74
2023/09/14 08:40:34;;;;;;;4.70;1.80;;;18.80;60.60;;;;;;4969491;28;20077;-74
2023/09/14 08:43:00;;;;;;;8.00;2.10;;;19.00;60.30;;;;;;4952581;28;20050;-74
2023/09/14 08:45:31;;;;;;;6.82;2.35;;;19.20;59.70;;;;;;4952665;28;20129;-74
2023/09/14 08:47:59;;;;;;;8.00;2.22;;;19.40;58.30;;;;;;4953182;28;20050;-74
2023/09/14 08:50:33;;;;;;;6.28;2.22;;;19.60;56.80;;;;;;4968624;28;20129;-73
2023/09/14 08:52:59;;;;;;;4.55;1.60;;;19.70;57.30;;;;;;4936742;28;20382;-73
2023/09/14 08:55:29;;;;;;;5.10;1.80;;;19.90;57.70;;;;;;4953110;28;21623;-73
2023/09/14 08:57:56;;;;;;;7.22;1.98;;;20.00;57.10;;;;;;4951082;28;20039;-73
2023/09/14 09:00:26;;;;;;;6.15;1.63;;;20.20;56.80;;;;;;4952918;28;20390;-74
2023/09/14 09:02:53;;;;;;;7.38;1.83;;;20.40;56.00;;;;;;4953352;28;20042;-74
2023/09/14 09:05:21;;;;;;;7.15;1.50;;;20.60;55.10;;;;;;4952845;28;20049;-73
2023/09/14 09:07:50;;;;;;;5.32;1.58;;;20.70;54.80;;;;;;4951621;28;20070;-72
2023/09/14 09:10:23;;;;;;;5.78;1.58;;;20.90;54.40;;;;;;4952511;28;20047;-71
2023/09/14 09:13:00;;;;;;;10.25;1.77;;;21.10;53.60;;;;;;4936099;28;20042;-71
2023/09/14 09:15:31;;;;;;;7.28;2.10;;;21.30;54.00;;;;;;4952211;28;20101;-71
2023/09/14 09:18:11;;;;;;;5.35;1.42;;;21.40;52.40;;;;;;4950078;28;20053;-71
2023/09/14 09:20:41;;;;;;;4.28;1.73;;;21.60;52.20;;;;;;4951523;28;20073;-71
2023/09/14 09:23:08;;;;;;;6.43;2.00;;;21.70;52.30;;;;;;4951161;28;20046;-71
2023/09/14 09:25:53;;;;;;;5.70;1.80;;;21.70;51.80;;;;;;4952430;28;20057;-71
2023/09/14 09:28:24;;;;;;;5.30;1.30;;;21.80;51.20;;;;;;4952082;28;20039;-70
2023/09/14 09:30:54;;;;;;;5.20;1.80;;;21.80;51.30;;;;;;4952860;28;20039;-71
2023/09/14 09:33:33;;;;;;;6.35;1.77;;;21.80;51.30;;;;;;4935820;28;20043;-71
2023/09/14 09:36:00;;;;;;;6.45;1.60;;;21.90;51.00;;;;;;4951700;28;20058;-71
2023/09/14 09:38:28;;;;;;;2.97;1.20;;;21.90;51.20;;;;;;4936500;28;20039;-72
2023/09/14 09:40:54;;;;;;;4.93;1.77;;;22.00;50.90;;;;;;4952106;28;20050;-72
2023/09/14 09:43:20;;;;;;;3.72;1.63;;;22.10;49.70;;;;;;4951452;28;20042;-71
2023/09/14 09:45:47;;;;;;;6.15;2.20;;;22.10;49.40;;;;;;4951687;28;20050;-71
2023/09/14 09:48:13;;;;;;;4.78;1.63;;;22.20;49.70;;;;;;4952131;28;20426;-71
2023/09/14 09:50:38;;;;;;;4.15;1.42;;;22.10;48.80;;;;;;4951927;28;20057;-71
2023/09/14 09:53:15;;;;;;;7.60;1.60;;;22.20;49.40;;;;;;4951793;28;20041;-70
2023/09/14 09:55:43;;;;;;;5.55;1.73;;;22.30;50.10;;;;;;4951502;28;20128;-70
2023/09/14 09:58:09;;;;;;;4.55;1.40;;;22.40;49.70;;;;;;4951241;28;20081;-70
2023/09/14 10:00:37;;;;;;;6.28;1.83;;;22.40;49.20;;;;;;4950002;28;20113;-70
2023/09/14 10:03:03;;;;;;;5.80;1.70;;;22.50;48.70;;;;;;4964428;28;20427;-70
2023/09/14 10:05:31;;;;;;;7.47;1.98;;;22.60;48.60;;;;;;4950641;28;20039;-70
2023/09/14 10:07:58;;;;;;;4.10;1.70;;;22.70;46.20;;;;;;4951710;28;20049;-71
2023/09/14 10:10:29;;;;;;;6.70;1.80;;;22.60;45.20;;;;;;4957583;28;20050;-70
2023/09/14 10:12:55;;;;;;;3.78;1.60;;;22.50;46.60;;;;;;4961643;28;20055;-70
2023/09/14 10:15:26;;;;;;;5.25;1.60;;;22.50;46.20;;;;;;4957584;28;20078;-70
2023/09/14 10:17:57;;;;;;;4.80;1.67;;;22.50;45.80;;;;;;4957624;28;20107;-70
2023/09/14 10:20:24;;;;;;;3.95;1.52;;;22.60;46.90;;;;;;4957068;28;20097;-71
2023/09/14 10:22:50;;;;;;;5.10;1.98;;;22.60;47.40;;;;;;4956575;28;20081;-70
2023/09/14 10:25:17;;;;;;;4.65;2.17;;;22.70;46.60;;;;;;4957364;28;20046;-70
2023/09/14 10:27:44;;;;;;;6.75;1.88;;;22.70;45.10;;;;;;4957266;28;20127;-71
2023/09/14 10:30:20;;;;;;;5.32;1.85;;;22.60;44.90;;;;;;4956480;28;20085;-71
2023/09/14 10:32:48;;;;;;;5.63;1.75;;;22.50;44.90;;;;;;4956954;28;20125;-71
2023/09/14 10:35:14;;;;;;;6.53;2.42;;;22.40;44.70;;;;;;4945333;28;20047;-71
2023/09/14 10:37:44;;;;;;;7.22;2.00;;;22.30;44.80;;;;;;4972998;28;20047;-71
2023/09/14 10:40:12;;;;;;;5.82;2.28;;;22.20;46.10;;;;;;4957265;28;20360;-71
2023/09/14 10:42:39;;;;;;;6.43;2.38;;;22.20;45.90;;;;;;4969657;28;20557;-71
2023/09/14 10:45:06;;;;;;;4.30;1.63;;;22.20;46.80;;;;;;4950234;28;20062;-71
2023/09/14 10:47:36;;;;;;;4.70;1.80;;;22.20;47.60;;;;;;4951128;28;20474;-71
2023/09/14 10:50:06;;;;;;;4.18;1.75;;;22.30;46.90;;;;;;4950140;28;20502;-71
2023/09/14 10:52:33;;;;;;;6.93;1.77;;;22.30;47.20;;;;;;4950285;28;20042;-71
2023/09/14 10:54:59;;;;;;;8.00;1.92;;;22.40;46.70;;;;;;4945178;28;20042;-71
2023/09/14 10:57:28;;;;;;;5.90;1.75;;;22.50;47.00;;;;;;4945011;28;20033;-72
2023/09/14 10:59:58;;;;;;;4.38;1.63;;;22.60;47.20;;;;;;4961867;28;20038;-71
2023/09/14 11:02:37;;;;;;;5.75;1.75;;;22.70;47.20;;;;;;4945643;28;20085;-71
2023/09/14 11:05:44;;;;;;;4.60;2.05;;;22.80;47.00;;;;;;4961039;28;20470;-71
2023/09/14 11:08:10;;;;;;;8.25;2.30;;;23.00;47.90;;;;;;4924736;28;20405;-71
2023/09/14 11:10:39;;;;;;;6.22;1.85;;;23.10;46.40;;;;;;4946087;28;20030;-71
2023/09/14 11:13:20;;;;;;;5.65;1.90;;;23.00;45.00;;;;;;4945570;28;20047;-71
2023/09/14 11:16:12;;;;;;;5.63;1.60;;;23.00;46.20;;;;;;4945967;28;20043;-71
2023/09/14 11:18:44;;;;;;;6.32;2.05;;;23.10;45.90;;;;;;4946919;28;20482;-71
2023/09/14 11:21:31;;;;;;;7.07;2.42;;;23.10;45.80;;;;;;4950361;28;20039;-71
2023/09/14 11:23:58;;;;;;;3.47;1.75;;;23.20;45.70;;;;;;4950645;28;20050;-71
2023/09/14 11:26:30;;;;;;;5.10;2.00;;;23.20;46.00;;;;;;4950494;28;20375;-71
2023/09/14 11:28:57;;;;;;;6.72;1.73;;;23.20;46.10;;;;;;4950617;28;20422;-71
2023/09/14 11:31:29;;;;;;;5.30;2.08;;;23.20;44.90;;;;;;4951224;28;20051;-71
2023/09/14 11:33:55;;;;;;;7.43;2.00;;;23.30;45.00;;;;;;4950128;28;20035;-71
2023/09/14 11:36:26;;;;;;;5.82;2.40;;;23.30;45.50;;;;;;4949487;28;20055;-70
2023/09/14 11:38:53;;;;;;;5.95;2.38;;;23.40;46.00;;;;;;4950437;28;20097;-70
2023/09/14 11:41:40;;;;;;;4.75;2.13;;;23.40;45.90;;;;;;4936070;28;20471;-70
2023/09/14 11:44:07;;;;;;;5.55;2.58;;;23.50;44.90;;;;;;4954309;28;20520;-71
2023/09/14 11:46:35;;;;;;;6.22;2.33;;;23.60;43.10;;;;;;4938358;28;20034;-71
2023/09/14 11:49:04;;;;;;;5.88;2.17;;;23.60;43.10;;;;;;4970620;28;20486;-71
2023/09/14 11:51:31;;;;;;;5.30;1.95;;;23.60;44.30;;;;;;4954104;28;20037;-71
2023/09/14 11:53:59;;;;;;;4.63;1.90;;;23.70;44.50;;;;;;4938083;28;20719;-71
2023/09/14 11:56:33;;;;;;;6.47;2.65;;;23.70;43.60;;;;;;4949248;28;20057;-71
2023/09/14 11:59:00;;;;;;;4.20;2.30;;;23.70;43.70;;;;;;4949431;28;20046;-71
2023/09/14 12:01:34;;;;;;;4.35;1.70;;;23.80;44.80;;;;;;4949252;28;20054;-71
2023/09/14 12:04:02;;;;;;;8.60;2.60;;;23.80;44.40;;;;;;4948416;28;20518;-71
2023/09/14 12:06:28;;;;;;;5.90;2.13;;;23.80;42.90;;;;;;4931646;28;20047;-71
2023/09/14 12:08:54;;;;;;;7.93;2.15;;;23.80;43.00;;;;;;4949541;28;20042;-71
2023/09/14 12:11:22;;;;;;;6.07;2.30;;;23.80;43.20;;;;;;4948572;28;20055;-71
2023/09/14 12:13:55;;;;;;;5.95;1.90;;;23.70;42.50;;;;;;4950069;28;20078;-71
2023/09/14 12:16:23;;;;;;;5.18;1.90;;;23.60;43.30;;;;;;4966119;28;20038;-71
2023/09/14 12:18:50;;;;;;;5.15;1.92;;;23.50;43.10;;;;;;4966417;28;20031;-71
2023/09/14 12:21:17;;;;;;;4.95;1.85;;;23.40;43.40;;;;;;4949198;28;20046;-71
2023/09/14 12:23:53;;;;;;;4.30;1.88;;;23.40;44.40;;;;;;4949118;28;20042;-71
2023/09/14 12:26:21;;;;;;;4.00;1.77;;;23.40;44.10;;;;;;4949677;28;20504;-71
2023/09/14 12:28:51;;;;;;;4.28;1.80;;;23.30;44.80;;;;;;4947469;28;20482;-71
2023/09/14 12:31:19;;;;;;;4.88;1.80;;;23.40;44.70;;;;;;4947754;28;20479;-71
2023/09/14 12:33:45;;;;;;;7.35;2.50;;;23.40;44.60;;;;;;4947093;28;20174;-72
2023/09/14 12:36:11;;;;;;;4.88;2.00;;;23.40;43.60;;;;;;4949072;28;20142;-71
2023/09/14 12:38:38;;;;;;;6.18;2.17;;;23.40;43.60;;;;;;4949412;28;20051;-71
2023/09/14 12:41:05;;;;;;;5.95;2.15;;;23.40;44.40;;;;;;4948642;28;20046;-72
2023/09/14 12:43:31;;;;;;;6.18;2.17;;;23.50;44.00;;;;;;4948788;28;21632;-71
2023/09/14 12:45:57;;;;;;;6.90;2.40;;;23.50;43.90;;;;;;4948527;28;20473;-72
2023/09/14 12:48:27;;;;;;;4.28;1.98;;;23.60;43.40;;;;;;4953907;28;20078;-72
2023/09/14 12:50:54;;;;;;;5.90;2.13;;;23.60;42.40;;;;;;4953613;28;20045;-71
2023/09/14 12:53:20;;;;;;;6.93;2.50;;;23.40;42.60;;;;;;4952607;28;20047;-71
2023/09/14 12:55:46;;;;;;;6.38;2.35;;;23.40;42.50;;;;;;4967877;28;20541;-72
2023/09/14 12:58:17;;;;;;;5.13;2.42;;;23.30;42.70;;;;;;4952685;28;20123;-71
2023/09/14 13:00:45;;;;;;;5.35;2.25;;;23.10;42.80;;;;;;4952433;28;20086;-71
2023/09/14 13:03:13;;;;;;;4.85;2.47;;;23.10;42.60;;;;;;4952485;28;20061;-71
2023/09/14 13:05:39;;;;;;;5.97;2.22;;;23.00;44.10;;;;;;4968948;28;20046;-71
2023/09/14 13:08:06;;;;;;;5.25;2.20;;;23.00;43.60;;;;;;4952955;28;20054;-72
2023/09/14 13:10:35;;;;;;;6.95;2.20;;;23.10;43.10;;;;;;4953423;28;20109;-71
2023/09/14 13:13:00;;;;;;;4.70;2.22;;;23.10;42.40;;;;;;4936426;28;20126;-71
2023/09/14 13:15:29;;;;;;;5.03;2.50;;;23.10;42.60;;;;;;4952404;28;20465;-71
2023/09/14 13:18:00;;;;;;;6.47;2.80;;;23.00;42.50;;;;;;4935792;28;20127;-71
2023/09/14 13:20:28;;;;;;;6.72;2.90;;;23.00;42.80;;;;;;4952138;28;20081;-71
2023/09/14 13:22:54;;;;;;;4.18;2.10;;;22.90;42.50;;;;;;4952938;28;20094;-71